Saga Sapphire — 9HOF8 — position and weather

sailwx.info

Track history (hours):
 
Tides and Currents Weather Stations Pressure Air Temp Water Temp Dewpoint Dewpoint Depression Visibility Wind Speed Wind Dir Waves Ship Positions

Saga Sapphire

Last reported at 2018-Sep-24 15:00 UTC. Time now 2018-Sep-24 21:00 UTC.
Position N 47°00' W 022°42'.

Length 200 m; draft 8.5 m.

Type: Passenger vessel. MMSI: 256208000.

Wind from 180 at 30 knots

Barometer 1027.7 mb
Air temperature 19.3 ° C
Visibility: greater than 0.3 NM
Dewpoint 18.8 ° C
Water temperature 17.0 ° C

Date/timePositionNaut miles runAvg speedWind from/ knotsBaromVisibWave heightAir tempDewpointWater temp
2018-Sep-24 15:00N 47°00' W 022°42'16413.7 180 / 301027.7 0.3 19.318.817.0
2018-Sep-24 03:00N 46°54' W 018°42'18914.5 140 / 221033.210.8 17.514.017.0
2018-Sep-23 14:00N 47°00' W 014°06'15513.0 030 / 231031.410.8 19.112.116.0
2018-Sep-23 02:00N 47°00' W 010°18'18415.3 230 / 271017.5 5.4 18.518.016.0
2018-Sep-22 14:00N 48°42' W 006°30'12915.6 200 / 81010.810.8 18.817.815.0
2018-Sep-22 05:41N 49°46' W 003°38'315.4
2018-Sep-22 05:30N 49°48' W 003°34'715.1
2018-Sep-22 05:03N 49°51' W 003°25'114.9
2018-Sep-22 04:59N 49°51' W 003°23'715.2
2018-Sep-22 04:30N 49°54' W 003°13'715.1
2018-Sep-22 04:03N 49°57' W 003°04'115.5
2018-Sep-22 04:00N 49°57' W 003°03'815.4
2018-Sep-22 03:30N 50°01' W 002°52'815.7
2018-Sep-22 03:00N 50°03' W 002°40'2616.7
2018-Sep-22 01:28N 50°07' W 002°01'817.0
2018-Sep-22 01:00N 50°06' W 001°48'7217.2 260 / 261020.710.8 15.2 7.816.0
2018-Sep-21 20:48N 50°29' W 000°01'515.0
2018-Sep-21 20:28N 50°30' E 000°07'614.4
2018-Sep-21 20:03N 50°32' E 000°16'114.4
2018-Sep-21 20:00N 50°32' E 000°17'714.0
2018-Sep-21 19:30N 50°34' E 000°27'613.8
2018-Sep-21 19:04N 50°36' E 000°37'113.9
2018-Sep-21 19:00N 50°37' E 000°38'713.9
2018-Sep-21 18:30N 50°41' E 000°46'614.2
2018-Sep-21 18:03N 50°45' E 000°54'114.4
2018-Sep-21 18:00N 50°45' E 000°55'714.6
2018-Sep-21 17:30N 50°50' E 001°03'614.4
2018-Sep-21 17:03N 50°54' E 001°11'114.5
2018-Sep-21 17:00N 50°55' E 001°12'714.4
2018-Sep-21 16:31N 51°01' E 001°18'511.7
2018-Sep-21 16:04N 51°06' E 001°21'0 7.5
2018-Sep-21 16:00N 51°06' E 001°21'1 0.2
2018-Sep-21 08:34N 51°07' E 001°19'0 0.0
2018-Sep-21 08:29N 51°07' E 001°19'2 5.5
2018-Sep-21 08:03N 51°07' E 001°23'0 8.6
2018-Sep-21 08:00N 51°07' E 001°23'4 7.1
2018-Sep-21 07:30N 51°10' E 001°26'1 1.6
2018-Sep-21 07:02N 51°11' E 001°27'0 0.2
2018-Sep-21 06:59N 51°11' E 001°27'0 0.0
2018-Sep-21 06:28N 51°11' E 001°27'0 0.2
2018-Sep-21 06:01N 51°11' E 001°27'0 0.4
2018-Sep-21 05:58N 51°11' E 001°27'0 0.1
2018-Sep-21 05:30N 51°11' E 001°27'0 0.1
2018-Sep-21 05:03N 51°11' E 001°27'0 0.1
2018-Sep-21 05:00N 51°11' E 001°27'0 0.1
2018-Sep-21 04:30N 51°11' E 001°27'1 2.3
2018-Sep-21 04:01N 51°12' E 001°28'0 0.3
2018-Sep-21 03:58N 51°12' E 001°28'0 0.0
2018-Sep-21 03:28N 51°12' E 001°28'0 0.4
2018-Sep-21 03:01N 51°12' E 001°27'0 0.5
2018-Sep-21 02:58N 51°12' E 001°28'0 0.4
2018-Sep-21 02:28N 51°12' E 001°28'0 0.5
2018-Sep-21 02:01N 51°12' E 001°27'0 2.2
2018-Sep-21 01:58N 51°12' E 001°27'0 0.2
2018-Sep-21 01:28N 51°12' E 001°27'0 0.5
2018-Sep-21 01:01N 51°12' E 001°27'0 0.4
2018-Sep-21 00:58N 51°12' E 001°27'0 0.2
2018-Sep-21 00:30N 51°12' E 001°27'0 0.2
2018-Sep-21 00:03N 51°12' E 001°27'0 0.6
2018-Sep-21 00:00N 51°12' E 001°27'0 0.3
2018-Sep-20 23:29N 51°11' E 001°27'0 0.1
2018-Sep-20 23:03N 51°11' E 001°27'0 0.9
2018-Sep-20 23:00N 51°11' E 001°27'0 0.2
2018-Sep-20 22:30N 51°11' E 001°27'0 0.1
2018-Sep-20 22:03N 51°11' E 001°27'0 1.2
2018-Sep-20 22:00N 51°11' E 001°27'0 0.8
2018-Sep-20 21:30N 51°11' E 001°28'3 7.2
2018-Sep-20 21:03N 51°08' E 001°25'110.0
2018-Sep-20 21:00N 51°08' E 001°25'4 7.4
2018-Sep-20 20:30N 51°07' E 001°19'0 0.0
2018-Sep-20 15:53N 51°07' E 001°19'1 2.2
2018-Sep-20 15:31N 51°07' E 001°20'2 5.1
2018-Sep-20 15:03N 51°08' E 001°24'0 2.9
2018-Sep-20 15:00N 51°08' E 001°24'0 0.2
2018-Sep-20 14:03N 51°08' E 001°24'0 5.1
2018-Sep-20 14:00N 51°08' E 001°24'3 6.0
2018-Sep-20 13:31N 51°08' E 001°29'511.1
2018-Sep-20 13:03N 51°09' E 001°37'112.7
2018-Sep-20 13:00N 51°09' E 001°37'713.1
2018-Sep-20 12:31N 51°13' E 001°46'715.0
2018-Sep-20 12:03N 51°20' E 001°49'114.9
2018-Sep-20 12:00N 51°20' E 001°49'714.8
2018-Sep-20 11:31N 51°27' E 001°53'714.8
2018-Sep-20 11:03N 51°32' E 002°00'114.5
2018-Sep-20 11:01N 51°32' E 002°01'714.7
2018-Sep-20 10:30N 51°38' E 002°09'17114.8
2018-Sep-19 23:00N 54°06' E 004°30'16815.7 200 / 201010.610.8 17.613.216.0
2018-Sep-19 12:18N 56°26' E 007°13'515.3
2018-Sep-19 12:00N 56°30' E 007°17'915.3
2018-Sep-19 11:27N 56°37' E 007°25'715.3
2018-Sep-19 11:00N 56°43' E 007°32'815.1
2018-Sep-19 10:30N 56°49' E 007°40'614.6
2018-Sep-19 10:03N 56°55' E 007°47'214.6
2018-Sep-19 09:56N 56°56' E 007°49'614.7
2018-Sep-19 09:30N 56°60' E 007°58'714.8
2018-Sep-19 09:03N 57°04' E 008°08'114.8
2018-Sep-19 09:00N 57°04' E 008°09'814.6
2018-Sep-19 08:29N 57°09' E 008°21'714.5
2018-Sep-19 08:02N 57°13' E 008°30'114.7
2018-Sep-19 07:59N 57°13' E 008°31'814.5
2018-Sep-19 07:27N 57°17' E 008°44'614.9
2018-Sep-19 07:02N 57°20' E 008°54'214.9
2018-Sep-19 06:55N 57°21' E 008°57'1714.9
2018-Sep-19 05:48N 57°29' E 009°23'615.0
2018-Sep-19 05:25N 57°32' E 009°33'714.9
2018-Sep-19 04:59N 57°36' E 009°43'714.7
2018-Sep-19 04:30N 57°39' E 009°54'714.8
2018-Sep-19 04:03N 57°42' E 010°05'114.9
2018-Sep-19 04:01N 57°42' E 010°06'714.9
2018-Sep-19 03:30N 57°45' E 010°19'715.3
2018-Sep-19 03:04N 57°48' E 010°31'115.3
2018-Sep-19 03:01N 57°48' E 010°32'714.7
2018-Sep-19 02:30N 57°48' E 010°46'510.6
2018-Sep-19 02:03N 57°43' E 010°44'112.0
2018-Sep-19 02:00N 57°43' E 010°43'4 7.5
2018-Sep-19 01:30N 57°43' E 010°36'1 1.3
2018-Sep-19 01:03N 57°43' E 010°35'0 0.0
2018-Sep-19 01:00N 57°43' E 010°35'0 0.0
2018-Sep-19 00:30N 57°43' E 010°35'0 0.0
2018-Sep-19 00:03N 57°43' E 010°35'0 0.0
2018-Sep-18 23:57N 57°43' E 010°35'0 0.0
2018-Sep-18 23:30N 57°43' E 010°35'0 0.0
2018-Sep-18 22:57N 57°43' E 010°35'0 0.0
2018-Sep-18 22:27N 57°43' E 010°35'0 0.0
2018-Sep-18 22:00N 57°43' E 010°35'0 0.0
2018-Sep-18 21:30N 57°43' E 010°35'0 0.0
2018-Sep-18 21:00N 57°43' E 010°35'0 0.0
2018-Sep-18 20:30N 57°43' E 010°35'0 0.0
2018-Sep-18 20:00N 57°43' E 010°35'0 0.0
2018-Sep-18 19:30N 57°43' E 010°35'0 0.0
2018-Sep-18 18:57N 57°43' E 010°35'0 0.0
2018-Sep-18 18:14N 57°43' E 010°35'0 0.0
2018-Sep-18 18:03N 57°43' E 010°35'0 0.0
2018-Sep-18 18:00N 57°43' E 010°35'0 0.0
2018-Sep-18 17:30N 57°43' E 010°35'0 0.1
2018-Sep-18 17:01N 57°43' E 010°35'0 0.0
2018-Sep-18 16:59N 57°43' E 010°35'0 0.0
2018-Sep-18 16:30N 57°43' E 010°35'0 0.0
2018-Sep-18 16:03N 57°43' E 010°35'0 0.0
2018-Sep-18 16:00N 57°43' E 010°35'0 0.0
2018-Sep-18 15:30N 57°43' E 010°35'0 0.0
2018-Sep-18 15:03N 57°43' E 010°35'0 0.0
2018-Sep-18 14:57N 57°43' E 010°35'0 0.0
2018-Sep-18 14:30N 57°43' E 010°35'0 0.0
2018-Sep-18 14:00N 57°43' E 010°35'0 0.0
2018-Sep-18 13:30N 57°43' E 010°35'0 0.0
2018-Sep-18 13:02N 57°43' E 010°35'0 0.0
2018-Sep-18 12:59N 57°43' E 010°35'0 0.0
2018-Sep-18 12:28N 57°43' E 010°35'0 0.0
2018-Sep-18 12:02N 57°43' E 010°35'0 0.0
2018-Sep-18 11:59N 57°43' E 010°35'0 0.0
2018-Sep-18 11:27N 57°43' E 010°35'0 0.0
2018-Sep-18 10:59N 57°43' E 010°35'0 0.0
2018-Sep-18 10:28N 57°43' E 010°35'0 0.0
2018-Sep-18 10:01N 57°43' E 010°35'0 0.0
2018-Sep-18 09:58N 57°43' E 010°35'0 0.0
2018-Sep-18 09:28N 57°43' E 010°35'0 0.0
2018-Sep-18 09:03N 57°43' E 010°35'0 0.0
2018-Sep-18 08:57N 57°43' E 010°35'0 0.0
2018-Sep-18 08:30N 57°43' E 010°35'0 0.0
2018-Sep-18 08:03N 57°43' E 010°35'0 0.0
2018-Sep-18 08:00N 57°43' E 010°35'0 0.0
2018-Sep-18 07:29N 57°43' E 010°35'0 0.0
2018-Sep-18 07:01N 57°43' E 010°35'0 0.0
2018-Sep-18 06:55N 57°43' E 010°35'0 0.3
2018-Sep-18 06:31N 57°43' E 010°35'2 5.0
2018-Sep-18 06:03N 57°43' E 010°40'0 9.8
2018-Sep-18 06:00N 57°43' E 010°41'510.8
2018-Sep-18 05:30N 57°42' E 010°51'511.1
2018-Sep-18 05:03N 57°41' E 010°60'111.2
2018-Sep-18 05:00N 57°41' E 011°01'611.4
2018-Sep-18 04:30N 57°39' E 011°11'612.0
2018-Sep-18 04:03N 57°38' E 011°21'012.0
2018-Sep-18 04:00N 57°38' E 011°22'611.4
2018-Sep-18 03:30N 57°38' E 011°32'4 9.0
2018-Sep-18 03:03N 57°37' E 011°40'010.5
2018-Sep-18 03:01N 57°37' E 011°40'510.4
2018-Sep-18 02:31N 57°40' E 011°48'1 2.9
2018-Sep-18 02:04N 57°42' E 011°49'0 0.0
2018-Sep-18 02:00N 57°42' E 011°49'0 0.0
2018-Sep-18 01:30N 57°42' E 011°49'0 0.0
2018-Sep-18 01:03N 57°42' E 011°49'0 0.1
2018-Sep-18 01:00N 57°42' E 011°49'0 0.0
2018-Sep-18 00:30N 57°42' E 011°49'0 0.0
2018-Sep-18 00:03N 57°42' E 011°49'0 0.0
2018-Sep-18 00:00N 57°42' E 011°49'0 0.0
2018-Sep-17 23:30N 57°42' E 011°49'0 0.0
2018-Sep-17 23:00N 57°42' E 011°49'0 0.0
2018-Sep-17 22:29N 57°42' E 011°49'0 0.0
2018-Sep-17 22:02N 57°42' E 011°49'0 0.1
2018-Sep-17 21:59N 57°42' E 011°49'0 0.0
2018-Sep-17 21:29N 57°42' E 011°49'0 0.0
2018-Sep-17 21:02N 57°42' E 011°49'0 0.0
2018-Sep-17 20:59N 57°42' E 011°49'0 0.0
2018-Sep-17 20:29N 57°42' E 011°49'0 0.0
2018-Sep-17 20:02N 57°42' E 011°49'0 0.0
2018-Sep-17 19:59N 57°42' E 011°49'0 0.0
2018-Sep-17 19:29N 57°42' E 011°49'0 0.0
2018-Sep-17 19:04N 57°42' E 011°49'0 0.0
2018-Sep-17 18:58N 57°42' E 011°49'0 0.0
2018-Sep-17 18:28N 57°42' E 011°49'0 0.0
2018-Sep-17 18:01N 57°42' E 011°49'0 0.0
2018-Sep-17 17:58N 57°42' E 011°49'0 0.0
2018-Sep-17 17:28N 57°42' E 011°49'0 0.0
2018-Sep-17 17:01N 57°42' E 011°49'0 0.0
2018-Sep-17 16:58N 57°42' E 011°49'0 0.0
2018-Sep-17 16:28N 57°42' E 011°49'0 0.0
2018-Sep-17 16:01N 57°42' E 011°49'0 0.0
2018-Sep-17 15:58N 57°42' E 011°49'0 0.0
2018-Sep-17 15:28N 57°42' E 011°49'0 0.0
2018-Sep-17 15:03N 57°42' E 011°49'0 0.0
2018-Sep-17 15:00N 57°42' E 011°49'0 0.0
2018-Sep-17 14:30N 57°42' E 011°49'0 0.0
2018-Sep-17 14:03N 57°42' E 011°49'0 0.0
2018-Sep-17 14:00N 57°42' E 011°49'0 0.0
2018-Sep-17 13:30N 57°42' E 011°49'0 0.0
2018-Sep-17 13:03N 57°42' E 011°49'0 0.0
2018-Sep-17 13:00N 57°42' E 011°49'0 0.0
2018-Sep-17 12:30N 57°42' E 011°49'0 0.0
2018-Sep-17 12:03N 57°42' E 011°49'0 0.0
2018-Sep-17 12:00N 57°42' E 011°49'0 0.0
2018-Sep-17 11:29N 57°42' E 011°49'0 0.0
2018-Sep-17 11:02N 57°42' E 011°49'0 0.1
2018-Sep-17 10:59N 57°42' E 011°49'0 0.0
2018-Sep-17 10:28N 57°42' E 011°49'0 0.0
2018-Sep-17 10:01N 57°42' E 011°49'0 0.0
2018-Sep-17 09:58N 57°42' E 011°49'0 0.0
2018-Sep-17 09:28N 57°42' E 011°49'0 0.0
2018-Sep-17 09:03N 57°42' E 011°49'0 0.1
2018-Sep-17 09:00N 57°42' E 011°49'0 0.0
2018-Sep-17 08:30N 57°42' E 011°49'0 0.0
2018-Sep-17 08:03N 57°42' E 011°49'0 0.0
2018-Sep-17 08:00N 57°42' E 011°49'0 0.0
2018-Sep-17 07:30N 57°42' E 011°49'0 0.0
2018-Sep-17 07:03N 57°42' E 011°49'0 0.0
2018-Sep-17 07:00N 57°42' E 011°49'0 0.0
2018-Sep-17 06:30N 57°42' E 011°49'0 0.0
2018-Sep-17 06:03N 57°42' E 011°49'0 0.0
2018-Sep-17 06:00N 57°42' E 011°49'0 0.0
2018-Sep-17 05:30N 57°42' E 011°49'1 2.3
2018-Sep-17 05:03N 57°41' E 011°48'0 4.2
2018-Sep-17 05:00N 57°41' E 011°48'3 5.4
2018-Sep-17 04:30N 57°41' E 011°43'4 8.5
2018-Sep-17 04:03N 57°37' E 011°40'110.6
2018-Sep-17 04:00N 57°37' E 011°40'4 8.1
2018-Sep-17 03:30N 57°37' E 011°32'510.6
2018-Sep-17 03:03N 57°39' E 011°24'111.7
2018-Sep-17 03:00N 57°40' E 011°24'611.4
2018-Sep-17 02:30N 57°43' E 011°15'511.6
2018-Sep-17 02:03N 57°46' E 011°07'111.5
2018-Sep-17 02:00N 57°46' E 011°06'611.4
2018-Sep-17 01:30N 57°50' E 010°59'511.8
2018-Sep-17 01:03N 57°55' E 010°52'111.9
2018-Sep-17 01:00N 57°55' E 010°52'612.0
2018-Sep-17 00:31N 57°59' E 010°44'511.5
2018-Sep-17 00:03N 58°03' E 010°37'111.1
2018-Sep-17 00:00N 58°03' E 010°36'3199.6
2018-Sep-17 00:00N 58°00' E 010°36'4 8.5 240 / 271009.210.8 15.513.515.0
2018-Sep-16 23:30N 58°00' E 010°28'611.3
2018-Sep-16 23:01N 57°57' E 010°20'911.7
2018-Sep-16 22:12N 57°53' E 010°04'311.5
2018-Sep-16 21:55N 57°52' E 009°58'611.7
2018-Sep-16 21:23N 57°52' E 009°46'412.3
2018-Sep-16 21:03N 57°53' E 009°39'112.3
2018-Sep-16 21:00N 57°53' E 009°38'612.0
2018-Sep-16 20:29N 57°54' E 009°26'512.0
2018-Sep-16 20:03N 57°54' E 009°16'012.1
2018-Sep-16 20:00N 57°54' E 009°15'612.1
2018-Sep-16 19:30N 57°53' E 009°04'512.0
2018-Sep-16 19:03N 57°53' E 008°54'111.9
2018-Sep-16 19:00N 57°53' E 008°53'611.7
2018-Sep-16 18:30N 57°54' E 008°42'511.5
2018-Sep-16 18:03N 57°56' E 008°33'111.2
2018-Sep-16 18:00N 57°57' E 008°32'510.7
2018-Sep-16 17:30N 57°59' E 008°23'510.3
2018-Sep-16 17:03N 58°01' E 008°15'110.0
2018-Sep-16 17:00N 58°01' E 008°14'510.3
2018-Sep-16 16:30N 58°03' E 008°06'4 9.7
2018-Sep-16 16:03N 58°07' E 008°02'010.2
2018-Sep-16 16:00N 58°08' E 008°01'1 2.2
2018-Sep-16 15:28N 58°08' E 007°59'0 0.0
2018-Sep-16 15:01N 58°08' E 007°59'0 0.0
2018-Sep-16 14:58N 58°08' E 007°59'0 0.0
2018-Sep-16 14:01N 58°08' E 007°59'0 0.0
2018-Sep-16 13:28N 58°08' E 007°59'0 0.0
2018-Sep-16 13:01N 58°08' E 007°59'0 0.0
2018-Sep-16 12:58N 58°08' E 007°59'0 0.0
2018-Sep-16 12:28N 58°08' E 007°59'0 0.0
2018-Sep-16 12:01N 58°08' E 007°59'0 0.0
2018-Sep-16 11:58N 58°08' E 007°59'0 0.0
2018-Sep-16 11:28N 58°08' E 007°59'0 0.0
2018-Sep-16 11:01N 58°08' E 007°59'0 0.0
2018-Sep-16 10:58N 58°08' E 007°59'0 0.0
2018-Sep-16 10:28N 58°08' E 007°59'0 0.0
2018-Sep-16 10:01N 58°08' E 007°59'0 0.0
2018-Sep-16 09:58N 58°08' E 007°59'0 0.0
2018-Sep-16 09:28N 58°08' E 007°59'0 0.0
2018-Sep-16 09:01N 58°08' E 007°59'0 0.0
2018-Sep-16 08:58N 58°08' E 007°59'0 0.0
2018-Sep-16 08:28N 58°08' E 007°59'0 0.0
2018-Sep-16 08:01N 58°08' E 007°59'0 0.0
2018-Sep-16 07:58N 58°08' E 007°59'0 0.0
2018-Sep-16 07:25N 58°08' E 007°59'0 0.0
2018-Sep-16 07:01N 58°08' E 007°59'0 0.0
2018-Sep-16 06:58N 58°08' E 007°59'0 0.0
2018-Sep-16 06:28N 58°08' E 007°59'0 0.0
2018-Sep-16 06:01N 58°08' E 007°59'0 0.0
2018-Sep-16 06:00N 58°08' E 007°59'0 0.8
2018-Sep-16 05:30N 58°08' E 007°60'3 7.1
2018-Sep-16 05:03N 58°06' E 008°03'111.4
2018-Sep-16 05:00N 58°05' E 008°04'4 8.2
2018-Sep-16 04:30N 58°01' E 008°05'511.6
2018-Sep-16 04:03N 57°56' E 008°04'111.5
2018-Sep-16 04:00N 57°55' E 008°04'611.7
2018-Sep-16 03:28N 57°49' E 008°02'512.7
2018-Sep-16 03:03N 57°44' E 008°00'113.3
2018-Sep-16 03:00N 57°43' E 007°60'713.3
2018-Sep-16 02:30N 57°41' E 007°48'613.7
2018-Sep-16 02:03N 57°41' E 007°36'113.6
2018-Sep-16 01:59N 57°41' E 007°35'713.3
2018-Sep-16 01:30N 57°41' E 007°23'613.9
2018-Sep-16 01:03N 57°41' E 007°11'114.2
2018-Sep-16 01:00N 57°41' E 007°10'714.3
2018-Sep-16 00:30N 57°42' E 006°57'714.7
2018-Sep-16 00:03N 57°42' E 006°44'114.6
2018-Sep-16 00:00N 57°43' E 006°43'177.0
2018-Sep-16 00:00N 57°42' E 006°42'713.8 230 / 111019.310.8 13.1 6.715.0
2018-Sep-15 23:30N 57°44' E 006°30'714.7
2018-Sep-15 23:03N 57°48' E 006°20'114.7
2018-Sep-15 23:00N 57°49' E 006°19'714.4
2018-Sep-15 22:30N 57°54' E 006°10'714.6
2018-Sep-15 22:03N 57°58' E 006°01'114.9
2018-Sep-15 22:00N 57°59' E 005°59'714.7
2018-Sep-15 21:29N 58°04' E 005°49'614.5
2018-Sep-15 21:03N 58°08' E 005°39'114.6
2018-Sep-15 21:00N 58°08' E 005°38'714.4
2018-Sep-15 20:30N 58°13' E 005°28'614.3
2018-Sep-15 20:03N 58°17' E 005°18'114.5
2018-Sep-15 19:59N 58°18' E 005°17'714.2
2018-Sep-15 19:30N 58°24' E 005°11'715.0
2018-Sep-15 19:03N 58°30' E 005°07'115.2
2018-Sep-15 19:00N 58°31' E 005°07'713.9
2018-Sep-15 18:30N 58°37' E 005°13'614.4
2018-Sep-15 18:03N 58°43' E 005°18'114.7
2018-Sep-15 18:00N 58°43' E 005°19'714.1
2018-Sep-15 17:30N 58°50' E 005°26'613.0
2018-Sep-15 17:03N 58°54' E 005°32'0 9.4
2018-Sep-15 17:00N 58°55' E 005°32'611.5
2018-Sep-15 16:30N 59°01' E 005°33'3 6.1
2018-Sep-15 16:03N 59°02' E 005°38'110.9
2018-Sep-15 16:00N 59°01' E 005°38'4 7.8
2018-Sep-15 15:30N 58°59' E 005°43'0 0.0
2018-Sep-15 15:00N 58°59' E 005°43'0 0.0
2018-Sep-15 14:30N 58°59' E 005°43'0 0.0
2018-Sep-15 13:57N 58°59' E 005°43'0 0.0
2018-Sep-15 13:30N 58°59' E 005°43'0 0.0
2018-Sep-15 13:03N 58°59' E 005°43'0 0.1
2018-Sep-15 13:00N 58°59' E 005°43'0 0.0
2018-Sep-15 12:30N 58°59' E 005°43'0 0.0
2018-Sep-15 12:03N 58°59' E 005°43'0 0.0
2018-Sep-15 12:00N 58°59' E 005°43'0 0.0
2018-Sep-15 11:30N 58°59' E 005°43'0 0.0
2018-Sep-15 11:03N 58°59' E 005°43'0 0.0
2018-Sep-15 11:00N 58°59' E 005°43'0 0.0
2018-Sep-15 10:30N 58°59' E 005°43'0 0.0
2018-Sep-15 10:03N 58°59' E 005°43'0 0.0
2018-Sep-15 10:00N 58°59' E 005°43'0 0.0
2018-Sep-15 09:29N 58°59' E 005°43'0 0.0
2018-Sep-15 09:03N 58°59' E 005°43'0 0.0
2018-Sep-15 09:00N 58°59' E 005°43'0 0.0
2018-Sep-15 08:30N 58°59' E 005°43'0 0.0
2018-Sep-15 08:03N 58°59' E 005°43'0 0.0
2018-Sep-15 08:00N 58°59' E 005°43'0 0.0
2018-Sep-15 07:30N 58°59' E 005°43'0 0.0
2018-Sep-15 07:03N 58°59' E 005°43'0 0.0
2018-Sep-15 07:00N 58°59' E 005°43'0 0.0
2018-Sep-15 06:30N 58°59' E 005°43'0 0.0
2018-Sep-15 06:03N 58°59' E 005°43'0 0.0
2018-Sep-15 06:00N 58°59' E 005°43'0 0.0
2018-Sep-15 05:31N 58°59' E 005°43'1 2.2
2018-Sep-15 05:03N 58°59' E 005°42'0 7.1
2018-Sep-15 05:01N 58°60' E 005°42'4 7.1
2018-Sep-15 04:31N 59°02' E 005°37'612.8
2018-Sep-15 04:03N 59°06' E 005°29'111.6
2018-Sep-15 04:01N 59°06' E 005°28'612.0
2018-Sep-15 03:31N 59°04' E 005°18'612.5
2018-Sep-15 03:03N 58°59' E 005°11'113.8
2018-Sep-15 03:00N 58°59' E 005°10'714.5
2018-Sep-15 02:30N 58°51' E 005°09'714.8
2018-Sep-15 02:03N 58°45' E 005°09'115.0
2018-Sep-15 02:01N 58°44' E 005°09'714.8
2018-Sep-15 01:30N 58°37' E 005°08'714.9
2018-Sep-15 01:03N 58°30' E 005°06'115.3
2018-Sep-15 01:00N 58°29' E 005°06'715.3
2018-Sep-15 00:30N 58°22' E 005°02'715.7
2018-Sep-15 00:03N 58°15' E 005°02'116.0
2018-Sep-15 00:00N 58°14' E 005°02'21160.5
2018-Sep-15 00:00N 58°12' E 005°00'612.3 270 / 311010.110.8 12.0 7.715.0
2018-Sep-14 23:30N 58°06' E 005°00'715.7
2018-Sep-14 23:03N 57°59' E 004°59'115.5
2018-Sep-14 22:59N 57°58' E 004°59'815.4
2018-Sep-14 22:30N 57°50' E 004°58'715.1
2018-Sep-14 22:03N 57°44' E 004°54'115.0
2018-Sep-14 22:00N 57°43' E 004°54'815.1
2018-Sep-14 21:29N 57°36' E 004°52'1114.8
2018-Sep-14 20:47N 57°25' E 004°51'  
Track history (hours):
 
Tides and Currents Weather Stations Pressure Air Temp Water Temp Dewpoint Dewpoint Depression Visibility Wind Speed Wind Dir Waves Ship Positions

Saga Sapphire

Last reported at 2018-Sep-24 15:00 UTC. Time now 2018-Sep-24 21:00 UTC.
Position N 47°00' W 022°42'.

Length 200 m; draft 8.5 m.

Type: Passenger vessel. MMSI: 256208000.

Wind from 180 at 30 knots

Barometer 1027.7 mb
Air temperature 19.3 ° C
Visibility: greater than 0.3 NM
Dewpoint 18.8 ° C
Water temperature 17.0 ° C

Date/timePositionNaut miles runAvg speedWind from/ knotsBaromVisibWave heightAir tempDewpointWater temp
2018-Sep-24 15:00N 47°00' W 022°42'16413.7 180 / 301027.7 0.3 19.318.817.0
2018-Sep-24 03:00N 46°54' W 018°42'18914.5 140 / 221033.210.8 17.514.017.0
2018-Sep-23 14:00N 47°00' W 014°06'15513.0 030 / 231031.410.8 19.112.116.0
2018-Sep-23 02:00N 47°00' W 010°18'18415.3 230 / 271017.5 5.4 18.518.016.0
2018-Sep-22 14:00N 48°42' W 006°30'12915.6 200 / 81010.810.8 18.817.815.0
2018-Sep-22 05:41N 49°46' W 003°38'315.4
2018-Sep-22 05:30N 49°48' W 003°34'715.1
2018-Sep-22 05:03N 49°51' W 003°25'114.9
2018-Sep-22 04:59N 49°51' W 003°23'715.2
2018-Sep-22 04:30N 49°54' W 003°13'715.1
2018-Sep-22 04:03N 49°57' W 003°04'115.5
2018-Sep-22 04:00N 49°57' W 003°03'815.4
2018-Sep-22 03:30N 50°01' W 002°52'815.7
2018-Sep-22 03:00N 50°03' W 002°40'2616.7
2018-Sep-22 01:28N 50°07' W 002°01'817.0
2018-Sep-22 01:00N 50°06' W 001°48'7217.2 260 / 261020.710.8 15.2 7.816.0
2018-Sep-21 20:48N 50°29' W 000°01'515.0
2018-Sep-21 20:28N 50°30' E 000°07'614.4
2018-Sep-21 20:03N 50°32' E 000°16'114.4
2018-Sep-21 20:00N 50°32' E 000°17'714.0
2018-Sep-21 19:30N 50°34' E 000°27'613.8
2018-Sep-21 19:04N 50°36' E 000°37'113.9
2018-Sep-21 19:00N 50°37' E 000°38'713.9
2018-Sep-21 18:30N 50°41' E 000°46'614.2
2018-Sep-21 18:03N 50°45' E 000°54'114.4
2018-Sep-21 18:00N 50°45' E 000°55'714.6
2018-Sep-21 17:30N 50°50' E 001°03'614.4
2018-Sep-21 17:03N 50°54' E 001°11'114.5
2018-Sep-21 17:00N 50°55' E 001°12'714.4
2018-Sep-21 16:31N 51°01' E 001°18'511.7
2018-Sep-21 16:04N 51°06' E 001°21'0 7.5
2018-Sep-21 16:00N 51°06' E 001°21'1 0.2
2018-Sep-21 08:34N 51°07' E 001°19'0 0.0
2018-Sep-21 08:29N 51°07' E 001°19'2 5.5
2018-Sep-21 08:03N 51°07' E 001°23'0 8.6
2018-Sep-21 08:00N 51°07' E 001°23'4 7.1
2018-Sep-21 07:30N 51°10' E 001°26'1 1.6
2018-Sep-21 07:02N 51°11' E 001°27'0 0.2
2018-Sep-21 06:59N 51°11' E 001°27'0 0.0
2018-Sep-21 06:28N 51°11' E 001°27'0 0.2
2018-Sep-21 06:01N 51°11' E 001°27'0 0.4
2018-Sep-21 05:58N 51°11' E 001°27'0 0.1
2018-Sep-21 05:30N 51°11' E 001°27'0 0.1
2018-Sep-21 05:03N 51°11' E 001°27'0 0.1
2018-Sep-21 05:00N 51°11' E 001°27'0 0.1
2018-Sep-21 04:30N 51°11' E 001°27'1 2.3
2018-Sep-21 04:01N 51°12' E 001°28'0 0.3
2018-Sep-21 03:58N 51°12' E 001°28'0 0.0
2018-Sep-21 03:28N 51°12' E 001°28'0 0.4
2018-Sep-21 03:01N 51°12' E 001°27'0 0.5
2018-Sep-21 02:58N 51°12' E 001°28'0 0.4
2018-Sep-21 02:28N 51°12' E 001°28'0 0.5
2018-Sep-21 02:01N 51°12' E 001°27'0 2.2
2018-Sep-21 01:58N 51°12' E 001°27'0 0.2
2018-Sep-21 01:28N 51°12' E 001°27'0 0.5
2018-Sep-21 01:01N 51°12' E 001°27'0 0.4
2018-Sep-21 00:58N 51°12' E 001°27'0 0.2
2018-Sep-21 00:30N 51°12' E 001°27'0 0.2
2018-Sep-21 00:03N 51°12' E 001°27'0 0.6
2018-Sep-21 00:00N 51°12' E 001°27'0 0.3
2018-Sep-20 23:29N 51°11' E 001°27'0 0.1
2018-Sep-20 23:03N 51°11' E 001°27'0 0.9
2018-Sep-20 23:00N 51°11' E 001°27'0 0.2
2018-Sep-20 22:30N 51°11' E 001°27'0 0.1
2018-Sep-20 22:03N 51°11' E 001°27'0 1.2
2018-Sep-20 22:00N 51°11' E 001°27'0 0.8
2018-Sep-20 21:30N 51°11' E 001°28'3 7.2
2018-Sep-20 21:03N 51°08' E 001°25'110.0
2018-Sep-20 21:00N 51°08' E 001°25'4 7.4
2018-Sep-20 20:30N 51°07' E 001°19'0 0.0
2018-Sep-20 15:53N 51°07' E 001°19'1 2.2
2018-Sep-20 15:31N 51°07' E 001°20'2 5.1
2018-Sep-20 15:03N 51°08' E 001°24'0 2.9
2018-Sep-20 15:00N 51°08' E 001°24'0 0.2
2018-Sep-20 14:03N 51°08' E 001°24'0 5.1
2018-Sep-20 14:00N 51°08' E 001°24'3 6.0
2018-Sep-20 13:31N 51°08' E 001°29'511.1
2018-Sep-20 13:03N 51°09' E 001°37'112.7
2018-Sep-20 13:00N 51°09' E 001°37'713.1
2018-Sep-20 12:31N 51°13' E 001°46'715.0
2018-Sep-20 12:03N 51°20' E 001°49'114.9
2018-Sep-20 12:00N 51°20' E 001°49'714.8
2018-Sep-20 11:31N 51°27' E 001°53'714.8
2018-Sep-20 11:03N 51°32' E 002°00'114.5
2018-Sep-20 11:01N 51°32' E 002°01'714.7
2018-Sep-20 10:30N 51°38' E 002°09'17114.8
2018-Sep-19 23:00N 54°06' E 004°30'16815.7 200 / 201010.610.8 17.613.216.0
2018-Sep-19 12:18N 56°26' E 007°13'515.3
2018-Sep-19 12:00N 56°30' E 007°17'915.3
2018-Sep-19 11:27N 56°37' E 007°25'715.3
2018-Sep-19 11:00N 56°43' E 007°32'815.1
2018-Sep-19 10:30N 56°49' E 007°40'614.6
2018-Sep-19 10:03N 56°55' E 007°47'214.6
2018-Sep-19 09:56N 56°56' E 007°49'614.7
2018-Sep-19 09:30N 56°60' E 007°58'714.8
2018-Sep-19 09:03N 57°04' E 008°08'114.8
2018-Sep-19 09:00N 57°04' E 008°09'814.6
2018-Sep-19 08:29N 57°09' E 008°21'714.5
2018-Sep-19 08:02N 57°13' E 008°30'114.7
2018-Sep-19 07:59N 57°13' E 008°31'814.5
2018-Sep-19 07:27N 57°17' E 008°44'614.9
2018-Sep-19 07:02N 57°20' E 008°54'214.9
2018-Sep-19 06:55N 57°21' E 008°57'1714.9
2018-Sep-19 05:48N 57°29' E 009°23'615.0
2018-Sep-19 05:25N 57°32' E 009°33'714.9
2018-Sep-19 04:59N 57°36' E 009°43'714.7
2018-Sep-19 04:30N 57°39' E 009°54'714.8
2018-Sep-19 04:03N 57°42' E 010°05'114.9
2018-Sep-19 04:01N 57°42' E 010°06'714.9
2018-Sep-19 03:30N 57°45' E 010°19'715.3
2018-Sep-19 03:04N 57°48' E 010°31'115.3
2018-Sep-19 03:01N 57°48' E 010°32'714.7
2018-Sep-19 02:30N 57°48' E 010°46'510.6
2018-Sep-19 02:03N 57°43' E 010°44'112.0
2018-Sep-19 02:00N 57°43' E 010°43'4 7.5
2018-Sep-19 01:30N 57°43' E 010°36'1 1.3
2018-Sep-19 01:03N 57°43' E 010°35'0 0.0
2018-Sep-19 01:00N 57°43' E 010°35'0 0.0
2018-Sep-19 00:30N 57°43' E 010°35'0 0.0
2018-Sep-19 00:03N 57°43' E 010°35'0 0.0
2018-Sep-18 23:57N 57°43' E 010°35'0 0.0
2018-Sep-18 23:30N 57°43' E 010°35'0 0.0
2018-Sep-18 22:57N 57°43' E 010°35'0 0.0
2018-Sep-18 22:27N 57°43' E 010°35'0 0.0
2018-Sep-18 22:00N 57°43' E 010°35'0 0.0
2018-Sep-18 21:30N 57°43' E 010°35'0 0.0
2018-Sep-18 21:00N 57°43' E 010°35'0 0.0
2018-Sep-18 20:30N 57°43' E 010°35'0 0.0
2018-Sep-18 20:00N 57°43' E 010°35'0 0.0
2018-Sep-18 19:30N 57°43' E 010°35'0 0.0
2018-Sep-18 18:57N 57°43' E 010°35'0 0.0
2018-Sep-18 18:14N 57°43' E 010°35'0 0.0
2018-Sep-18 18:03N 57°43' E 010°35'0 0.0
2018-Sep-18 18:00N 57°43' E 010°35'0 0.0
2018-Sep-18 17:30N 57°43' E 010°35'0 0.1
2018-Sep-18 17:01N 57°43' E 010°35'0 0.0
2018-Sep-18 16:59N 57°43' E 010°35'0 0.0
2018-Sep-18 16:30N 57°43' E 010°35'0 0.0
2018-Sep-18 16:03N 57°43' E 010°35'0 0.0
2018-Sep-18 16:00N 57°43' E 010°35'0 0.0
2018-Sep-18 15:30N 57°43' E 010°35'0 0.0
2018-Sep-18 15:03N 57°43' E 010°35'0 0.0
2018-Sep-18 14:57N 57°43' E 010°35'0 0.0
2018-Sep-18 14:30N 57°43' E 010°35'0 0.0
2018-Sep-18 14:00N 57°43' E 010°35'0 0.0
2018-Sep-18 13:30N 57°43' E 010°35'0 0.0
2018-Sep-18 13:02N 57°43' E 010°35'0 0.0
2018-Sep-18 12:59N 57°43' E 010°35'0 0.0
2018-Sep-18 12:28N 57°43' E 010°35'0 0.0
2018-Sep-18 12:02N 57°43' E 010°35'0 0.0
2018-Sep-18 11:59N 57°43' E 010°35'0 0.0
2018-Sep-18 11:27N 57°43' E 010°35'0 0.0
2018-Sep-18 10:59N 57°43' E 010°35'0 0.0
2018-Sep-18 10:28N 57°43' E 010°35'0 0.0
2018-Sep-18 10:01N 57°43' E 010°35'0 0.0
2018-Sep-18 09:58N 57°43' E 010°35'0 0.0
2018-Sep-18 09:28N 57°43' E 010°35'0 0.0
2018-Sep-18 09:03N 57°43' E 010°35'0 0.0
2018-Sep-18 08:57N 57°43' E 010°35'0 0.0
2018-Sep-18 08:30N 57°43' E 010°35'0 0.0
2018-Sep-18 08:03N 57°43' E 010°35'0 0.0
2018-Sep-18 08:00N 57°43' E 010°35'0 0.0
2018-Sep-18 07:29N 57°43' E 010°35'0 0.0
2018-Sep-18 07:01N 57°43' E 010°35'0 0.0
2018-Sep-18 06:55N 57°43' E 010°35'0 0.3
2018-Sep-18 06:31N 57°43' E 010°35'2 5.0
2018-Sep-18 06:03N 57°43' E 010°40'0 9.8
2018-Sep-18 06:00N 57°43' E 010°41'510.8
2018-Sep-18 05:30N 57°42' E 010°51'511.1
2018-Sep-18 05:03N 57°41' E 010°60'111.2
2018-Sep-18 05:00N 57°41' E 011°01'611.4
2018-Sep-18 04:30N 57°39' E 011°11'612.0
2018-Sep-18 04:03N 57°38' E 011°21'012.0
2018-Sep-18 04:00N 57°38' E 011°22'611.4
2018-Sep-18 03:30N 57°38' E 011°32'4 9.0
2018-Sep-18 03:03N 57°37' E 011°40'010.5
2018-Sep-18 03:01N 57°37' E 011°40'510.4
2018-Sep-18 02:31N 57°40' E 011°48'1 2.9
2018-Sep-18 02:04N 57°42' E 011°49'0 0.0
2018-Sep-18 02:00N 57°42' E 011°49'0 0.0
2018-Sep-18 01:30N 57°42' E 011°49'0 0.0
2018-Sep-18 01:03N 57°42' E 011°49'0 0.1
2018-Sep-18 01:00N 57°42' E 011°49'0 0.0
2018-Sep-18 00:30N 57°42' E 011°49'0 0.0
2018-Sep-18 00:03N 57°42' E 011°49'0 0.0
2018-Sep-18 00:00N 57°42' E 011°49'0 0.0
2018-Sep-17 23:30N 57°42' E 011°49'0 0.0
2018-Sep-17 23:00N 57°42' E 011°49'0 0.0
2018-Sep-17 22:29N 57°42' E 011°49'0 0.0
2018-Sep-17 22:02N 57°42' E 011°49'0 0.1
2018-Sep-17 21:59N 57°42' E 011°49'0 0.0
2018-Sep-17 21:29N 57°42' E 011°49'0 0.0
2018-Sep-17 21:02N 57°42' E 011°49'0 0.0
2018-Sep-17 20:59N 57°42' E 011°49'0 0.0
2018-Sep-17 20:29N 57°42' E 011°49'0 0.0
2018-Sep-17 20:02N 57°42' E 011°49'0 0.0
2018-Sep-17 19:59N 57°42' E 011°49'0 0.0
2018-Sep-17 19:29N 57°42' E 011°49'0 0.0
2018-Sep-17 19:04N 57°42' E 011°49'0 0.0
2018-Sep-17 18:58N 57°42' E 011°49'0 0.0
2018-Sep-17 18:28N 57°42' E 011°49'0 0.0
2018-Sep-17 18:01N 57°42' E 011°49'0 0.0
2018-Sep-17 17:58N 57°42' E 011°49'0 0.0
2018-Sep-17 17:28N 57°42' E 011°49'0 0.0
2018-Sep-17 17:01N 57°42' E 011°49'0 0.0
2018-Sep-17 16:58N 57°42' E 011°49'0 0.0
2018-Sep-17 16:28N 57°42' E 011°49'0 0.0
2018-Sep-17 16:01N 57°42' E 011°49'0 0.0
2018-Sep-17 15:58N 57°42' E 011°49'0 0.0
2018-Sep-17 15:28N 57°42' E 011°49'0 0.0
2018-Sep-17 15:03N 57°42' E 011°49'0 0.0
2018-Sep-17 15:00N 57°42' E 011°49'0 0.0
2018-Sep-17 14:30N 57°42' E 011°49'0 0.0
2018-Sep-17 14:03N 57°42' E 011°49'0 0.0
2018-Sep-17 14:00N 57°42' E 011°49'0 0.0
2018-Sep-17 13:30N 57°42' E 011°49'0 0.0
2018-Sep-17 13:03N 57°42' E 011°49'0 0.0
2018-Sep-17 13:00N 57°42' E 011°49'0 0.0
2018-Sep-17 12:30N 57°42' E 011°49'0 0.0
2018-Sep-17 12:03N 57°42' E 011°49'0 0.0
2018-Sep-17 12:00N 57°42' E 011°49'0 0.0
2018-Sep-17 11:29N 57°42' E 011°49'0 0.0
2018-Sep-17 11:02N 57°42' E 011°49'0 0.1
2018-Sep-17 10:59N 57°42' E 011°49'0 0.0
2018-Sep-17 10:28N 57°42' E 011°49'0 0.0
2018-Sep-17 10:01N 57°42' E 011°49'0 0.0
2018-Sep-17 09:58N 57°42' E 011°49'0 0.0
2018-Sep-17 09:28N 57°42' E 011°49'0 0.0
2018-Sep-17 09:03N 57°42' E 011°49'0 0.1
2018-Sep-17 09:00N 57°42' E 011°49'0 0.0
2018-Sep-17 08:30N 57°42' E 011°49'0 0.0
2018-Sep-17 08:03N 57°42' E 011°49'0 0.0
2018-Sep-17 08:00N 57°42' E 011°49'0 0.0
2018-Sep-17 07:30N 57°42' E 011°49'0 0.0
2018-Sep-17 07:03N 57°42' E 011°49'0 0.0
2018-Sep-17 07:00N 57°42' E 011°49'0 0.0
2018-Sep-17 06:30N 57°42' E 011°49'0 0.0
2018-Sep-17 06:03N 57°42' E 011°49'0 0.0
2018-Sep-17 06:00N 57°42' E 011°49'0 0.0
2018-Sep-17 05:30N 57°42' E 011°49'1 2.3
2018-Sep-17 05:03N 57°41' E 011°48'0 4.2
2018-Sep-17 05:00N 57°41' E 011°48'3 5.4
2018-Sep-17 04:30N 57°41' E 011°43'4 8.5
2018-Sep-17 04:03N 57°37' E 011°40'110.6
2018-Sep-17 04:00N 57°37' E 011°40'4 8.1
2018-Sep-17 03:30N 57°37' E 011°32'510.6
2018-Sep-17 03:03N 57°39' E 011°24'111.7
2018-Sep-17 03:00N 57°40' E 011°24'611.4
2018-Sep-17 02:30N 57°43' E 011°15'511.6
2018-Sep-17 02:03N 57°46' E 011°07'111.5
2018-Sep-17 02:00N 57°46' E 011°06'611.4
2018-Sep-17 01:30N 57°50' E 010°59'511.8
2018-Sep-17 01:03N 57°55' E 010°52'111.9
2018-Sep-17 01:00N 57°55' E 010°52'612.0
2018-Sep-17 00:31N 57°59' E 010°44'511.5
2018-Sep-17 00:03N 58°03' E 010°37'111.1
2018-Sep-17 00:00N 58°03' E 010°36'3199.6
2018-Sep-17 00:00N 58°00' E 010°36'4 8.5 240 / 271009.210.8 15.513.515.0
2018-Sep-16 23:30N 58°00' E 010°28'611.3
2018-Sep-16 23:01N 57°57' E 010°20'911.7
2018-Sep-16 22:12N 57°53' E 010°04'311.5
2018-Sep-16 21:55N 57°52' E 009°58'611.7
2018-Sep-16 21:23N 57°52' E 009°46'412.3
2018-Sep-16 21:03N 57°53' E 009°39'112.3
2018-Sep-16 21:00N 57°53' E 009°38'612.0
2018-Sep-16 20:29N 57°54' E 009°26'512.0
2018-Sep-16 20:03N 57°54' E 009°16'012.1
2018-Sep-16 20:00N 57°54' E 009°15'612.1
2018-Sep-16 19:30N 57°53' E 009°04'512.0
2018-Sep-16 19:03N 57°53' E 008°54'111.9
2018-Sep-16 19:00N 57°53' E 008°53'611.7
2018-Sep-16 18:30N 57°54' E 008°42'511.5
2018-Sep-16 18:03N 57°56' E 008°33'111.2
2018-Sep-16 18:00N 57°57' E 008°32'510.7
2018-Sep-16 17:30N 57°59' E 008°23'510.3
2018-Sep-16 17:03N 58°01' E 008°15'110.0
2018-Sep-16 17:00N 58°01' E 008°14'510.3
2018-Sep-16 16:30N 58°03' E 008°06'4 9.7
2018-Sep-16 16:03N 58°07' E 008°02'010.2
2018-Sep-16 16:00N 58°08' E 008°01'1 2.2
2018-Sep-16 15:28N 58°08' E 007°59'0 0.0
2018-Sep-16 15:01N 58°08' E 007°59'0 0.0
2018-Sep-16 14:58N 58°08' E 007°59'0 0.0
2018-Sep-16 14:01N 58°08' E 007°59'0 0.0
2018-Sep-16 13:28N 58°08' E 007°59'0 0.0
2018-Sep-16 13:01N 58°08' E 007°59'0 0.0
2018-Sep-16 12:58N 58°08' E 007°59'0 0.0
2018-Sep-16 12:28N 58°08' E 007°59'0 0.0
2018-Sep-16 12:01N 58°08' E 007°59'0 0.0
2018-Sep-16 11:58N 58°08' E 007°59'0 0.0
2018-Sep-16 11:28N 58°08' E 007°59'0 0.0
2018-Sep-16 11:01N 58°08' E 007°59'0 0.0
2018-Sep-16 10:58N 58°08' E 007°59'0 0.0
2018-Sep-16 10:28N 58°08' E 007°59'0 0.0
2018-Sep-16 10:01N 58°08' E 007°59'0 0.0
2018-Sep-16 09:58N 58°08' E 007°59'0 0.0
2018-Sep-16 09:28N 58°08' E 007°59'0 0.0
2018-Sep-16 09:01N 58°08' E 007°59'0 0.0
2018-Sep-16 08:58N 58°08' E 007°59'0 0.0
2018-Sep-16 08:28N 58°08' E 007°59'0 0.0
2018-Sep-16 08:01N 58°08' E 007°59'0 0.0
2018-Sep-16 07:58N 58°08' E 007°59'0 0.0
2018-Sep-16 07:25N 58°08' E 007°59'0 0.0
2018-Sep-16 07:01N 58°08' E 007°59'0 0.0
2018-Sep-16 06:58N 58°08' E 007°59'0 0.0
2018-Sep-16 06:28N 58°08' E 007°59'0 0.0
2018-Sep-16 06:01N 58°08' E 007°59'0 0.0
2018-Sep-16 06:00N 58°08' E 007°59'0 0.8
2018-Sep-16 05:30N 58°08' E 007°60'3 7.1
2018-Sep-16 05:03N 58°06' E 008°03'111.4
2018-Sep-16 05:00N 58°05' E 008°04'4 8.2
2018-Sep-16 04:30N 58°01' E 008°05'511.6
2018-Sep-16 04:03N 57°56' E 008°04'111.5
2018-Sep-16 04:00N 57°55' E 008°04'611.7
2018-Sep-16 03:28N 57°49' E 008°02'512.7
2018-Sep-16 03:03N 57°44' E 008°00'113.3
2018-Sep-16 03:00N 57°43' E 007°60'713.3
2018-Sep-16 02:30N 57°41' E 007°48'613.7
2018-Sep-16 02:03N 57°41' E 007°36'113.6
2018-Sep-16 01:59N 57°41' E 007°35'713.3
2018-Sep-16 01:30N 57°41' E 007°23'613.9
2018-Sep-16 01:03N 57°41' E 007°11'114.2
2018-Sep-16 01:00N 57°41' E 007°10'714.3
2018-Sep-16 00:30N 57°42' E 006°57'714.7
2018-Sep-16 00:03N 57°42' E 006°44'114.6
2018-Sep-16 00:00N 57°43' E 006°43'177.0
2018-Sep-16 00:00N 57°42' E 006°42'713.8 230 / 111019.310.8 13.1 6.715.0
2018-Sep-15 23:30N 57°44' E 006°30'714.7
2018-Sep-15 23:03N 57°48' E 006°20'114.7
2018-Sep-15 23:00N 57°49' E 006°19'714.4
2018-Sep-15 22:30N 57°54' E 006°10'714.6
2018-Sep-15 22:03N 57°58' E 006°01'114.9
2018-Sep-15 22:00N 57°59' E 005°59'714.7
2018-Sep-15 21:29N 58°04' E 005°49'614.5
2018-Sep-15 21:03N 58°08' E 005°39'114.6
2018-Sep-15 21:00N 58°08' E 005°38'714.4
2018-Sep-15 20:30N 58°13' E 005°28'614.3
2018-Sep-15 20:03N 58°17' E 005°18'114.5
2018-Sep-15 19:59N 58°18' E 005°17'714.2
2018-Sep-15 19:30N 58°24' E 005°11'715.0
2018-Sep-15 19:03N 58°30' E 005°07'115.2
2018-Sep-15 19:00N 58°31' E 005°07'713.9
2018-Sep-15 18:30N 58°37' E 005°13'614.4
2018-Sep-15 18:03N 58°43' E 005°18'114.7
2018-Sep-15 18:00N 58°43' E 005°19'714.1
2018-Sep-15 17:30N 58°50' E 005°26'613.0
2018-Sep-15 17:03N 58°54' E 005°32'0 9.4
2018-Sep-15 17:00N 58°55' E 005°32'611.5
2018-Sep-15 16:30N 59°01' E 005°33'3 6.1
2018-Sep-15 16:03N 59°02' E 005°38'110.9
2018-Sep-15 16:00N 59°01' E 005°38'4 7.8
2018-Sep-15 15:30N 58°59' E 005°43'0 0.0
2018-Sep-15 15:00N 58°59' E 005°43'0 0.0
2018-Sep-15 14:30N 58°59' E 005°43'0 0.0
2018-Sep-15 13:57N 58°59' E 005°43'0 0.0
2018-Sep-15 13:30N 58°59' E 005°43'0 0.0
2018-Sep-15 13:03N 58°59' E 005°43'0 0.1
2018-Sep-15 13:00N 58°59' E 005°43'0 0.0
2018-Sep-15 12:30N 58°59' E 005°43'0 0.0
2018-Sep-15 12:03N 58°59' E 005°43'0 0.0
2018-Sep-15 12:00N 58°59' E 005°43'0 0.0
2018-Sep-15 11:30N 58°59' E 005°43'0 0.0
2018-Sep-15 11:03N 58°59' E 005°43'0 0.0
2018-Sep-15 11:00N 58°59' E 005°43'0 0.0
2018-Sep-15 10:30N 58°59' E 005°43'0 0.0
2018-Sep-15 10:03N 58°59' E 005°43'0 0.0
2018-Sep-15 10:00N 58°59' E 005°43'0 0.0
2018-Sep-15 09:29N 58°59' E 005°43'0 0.0
2018-Sep-15 09:03N 58°59' E 005°43'0 0.0
2018-Sep-15 09:00N 58°59' E 005°43'0 0.0
2018-Sep-15 08:30N 58°59' E 005°43'0 0.0
2018-Sep-15 08:03N 58°59' E 005°43'0 0.0
2018-Sep-15 08:00N 58°59' E 005°43'0 0.0
2018-Sep-15 07:30N 58°59' E 005°43'0 0.0
2018-Sep-15 07:03N 58°59' E 005°43'0 0.0
2018-Sep-15 07:00N 58°59' E 005°43'0 0.0
2018-Sep-15 06:30N 58°59' E 005°43'0 0.0
2018-Sep-15 06:03N 58°59' E 005°43'0 0.0
2018-Sep-15 06:00N 58°59' E 005°43'0 0.0
2018-Sep-15 05:31N 58°59' E 005°43'1 2.2
2018-Sep-15 05:03N 58°59' E 005°42'0 7.1
2018-Sep-15 05:01N 58°60' E 005°42'4 7.1
2018-Sep-15 04:31N 59°02' E 005°37'612.8
2018-Sep-15 04:03N 59°06' E 005°29'111.6
2018-Sep-15 04:01N 59°06' E 005°28'612.0
2018-Sep-15 03:31N 59°04' E 005°18'612.5
2018-Sep-15 03:03N 58°59' E 005°11'113.8
2018-Sep-15 03:00N 58°59' E 005°10'714.5
2018-Sep-15 02:30N 58°51' E 005°09'714.8
2018-Sep-15 02:03N 58°45' E 005°09'115.0
2018-Sep-15 02:01N 58°44' E 005°09'714.8
2018-Sep-15 01:30N 58°37' E 005°08'714.9
2018-Sep-15 01:03N 58°30' E 005°06'115.3
2018-Sep-15 01:00N 58°29' E 005°06'715.3
2018-Sep-15 00:30N 58°22' E 005°02'715.7
2018-Sep-15 00:03N 58°15' E 005°02'116.0
2018-Sep-15 00:00N 58°14' E 005°02'21160.5
2018-Sep-15 00:00N 58°12' E 005°00'612.3 270 / 311010.110.8 12.0 7.715.0
2018-Sep-14 23:30N 58°06' E 005°00'715.7
2018-Sep-14 23:03N 57°59' E 004°59'115.5
2018-Sep-14 22:59N 57°58' E 004°59'815.4
2018-Sep-14 22:30N 57°50' E 004°58'715.1
2018-Sep-14 22:03N 57°44' E 004°54'115.0
2018-Sep-14 22:00N 57°43' E 004°54'815.1
2018-Sep-14 21:29N 57°36' E 004°52'1114.8
2018-Sep-14 20:47N 57°25' E 004°51'  

Dump ship's entire track history